sensor_id;sensor_type;location;lat;lon;timestamp;pressure;altitude;pressure_sealevel;temperature;humidity
24154;BME280;12312;53.362;-1.518;2023-05-25T00:02:15;100407.94;;;15.38;100.00
24154;BME280;12312;53.362;-1.518;2023-05-25T00:04:59;100408.31;;;15.80;100.00
24154;BME280;12312;53.362;-1.518;2023-05-25T00:07:44;100417.56;;;15.76;100.00
24154;BME280;12312;53.362;-1.518;2023-05-25T00:10:27;100419.84;;;15.70;100.00
24154;BME280;12312;53.362;-1.518;2023-05-25T00:13:11;100422.75;;;15.67;100.00
24154;BME280;12312;53.362;-1.518;2023-05-25T00:15:56;100420.47;;;15.50;100.00
24154;BME280;12312;53.362;-1.518;2023-05-25T00:18:40;100422.56;;;15.57;100.00
24154;BME280;12312;53.362;-1.518;2023-05-25T01:20:59;100422.34;;;16.08;100.00
24154;BME280;12312;53.362;-1.518;2023-05-25T01:24:03;100421.19;;;15.64;100.00
24154;BME280;12312;53.362;-1.518;2023-05-25T01:26:59;100422.81;;;15.54;100.00
24154;BME280;12312;53.362;-1.518;2023-05-25T01:29:45;100425.34;;;15.68;100.00
24154;BME280;12312;53.362;-1.518;2023-05-25T01:32:31;100420.41;;;15.26;100.00
24154;BME280;12312;53.362;-1.518;2023-05-25T01:35:17;100423.06;;;15.39;100.00
24154;BME280;12312;53.362;-1.518;2023-05-25T01:38:03;100423.38;;;15.34;100.00
24154;BME280;12312;53.362;-1.518;2023-05-25T01:40:48;100419.72;;;15.35;100.00
24154;BME280;12312;53.362;-1.518;2023-05-25T01:43:32;100419.44;;;15.27;100.00
24154;BME280;12312;53.362;-1.518;2023-05-25T01:49:25;100421.78;;;15.44;100.00
24154;BME280;12312;53.362;-1.518;2023-05-25T01:52:17;100426.03;;;15.34;100.00
24154;BME280;12312;53.362;-1.518;2023-05-25T01:55:15;100421.66;;;15.33;100.00
24154;BME280;12312;53.362;-1.518;2023-05-25T01:58:01;100423.81;;;15.28;100.00
24154;BME280;12312;53.362;-1.518;2023-05-25T02:00:46;100422.56;;;15.57;100.00
24154;BME280;12312;53.362;-1.518;2023-05-25T02:03:32;100423.44;;;15.58;100.00
24154;BME280;12312;53.362;-1.518;2023-05-25T02:06:16;100426.56;;;15.52;100.00
24154;BME280;12312;53.362;-1.518;2023-05-25T02:09:00;100434.22;;;15.45;100.00
24154;BME280;12312;53.362;-1.518;2023-05-25T02:11:44;100439.34;;;15.48;100.00
24154;BME280;12312;53.362;-1.518;2023-05-25T02:14:28;100438.19;;;15.52;100.00
24154;BME280;12312;53.362;-1.518;2023-05-25T02:17:12;100444.00;;;15.34;100.00
24154;BME280;12312;53.362;-1.518;2023-05-25T02:19:57;100443.22;;;15.32;100.00
24154;BME280;12312;53.362;-1.518;2023-05-25T02:22:41;100447.00;;;15.29;100.00
24154;BME280;12312;53.362;-1.518;2023-05-25T02:25:24;100440.88;;;15.27;100.00
24154;BME280;12312;53.362;-1.518;2023-05-25T02:28:09;100439.63;;;15.20;100.00
24154;BME280;12312;53.362;-1.518;2023-05-25T02:30:53;100444.44;;;15.28;100.00
24154;BME280;12312;53.362;-1.518;2023-05-25T02:33:37;100444.31;;;15.29;100.00
24154;BME280;12312;53.362;-1.518;2023-05-25T02:36:21;100442.81;;;15.25;100.00
24154;BME280;12312;53.362;-1.518;2023-05-25T02:39:05;100444.53;;;15.39;100.00
24154;BME280;12312;53.362;-1.518;2023-05-25T02:41:49;100451.41;;;15.18;100.00
24154;BME280;12312;53.362;-1.518;2023-05-25T02:44:33;100452.28;;;15.18;100.00
24154;BME280;12312;53.362;-1.518;2023-05-25T02:47:17;100447.78;;;15.19;100.00
24154;BME280;12312;53.362;-1.518;2023-05-25T02:50:02;100453.69;;;15.11;100.00
24154;BME280;12312;53.362;-1.518;2023-05-25T02:56:33;100451.22;;;14.96;100.00
24154;BME280;12312;53.362;-1.518;2023-05-25T02:59:17;100454.25;;;14.91;100.00
24154;BME280;12312;53.362;-1.518;2023-05-25T03:02:01;100455.19;;;15.03;100.00
24154;BME280;12312;53.362;-1.518;2023-05-25T03:04:45;100452.50;;;15.15;100.00
24154;BME280;12312;53.362;-1.518;2023-05-25T03:07:29;100449.28;;;15.10;100.00
24154;BME280;12312;53.362;-1.518;2023-05-25T03:10:13;100451.63;;;15.15;100.00
24154;BME280;12312;53.362;-1.518;2023-05-25T03:12:57;100454.41;;;15.13;100.00
24154;BME280;12312;53.362;-1.518;2023-05-25T03:15:41;100456.16;;;15.14;100.00
24154;BME280;12312;53.362;-1.518;2023-05-25T03:18:26;100461.38;;;15.28;100.00
24154;BME280;12312;53.362;-1.518;2023-05-25T03:21:10;100459.06;;;15.11;100.00
24154;BME280;12312;53.362;-1.518;2023-05-25T03:23:54;100470.31;;;15.04;100.00
24154;BME280;12312;53.362;-1.518;2023-05-25T03:26:38;100460.66;;;15.14;100.00
24154;BME280;12312;53.362;-1.518;2023-05-25T03:29:22;100468.69;;;15.01;100.00
24154;BME280;12312;53.362;-1.518;2023-05-25T03:32:06;100458.28;;;14.84;100.00
24154;BME280;12312;53.362;-1.518;2023-05-25T03:34:50;100465.81;;;14.79;100.00
24154;BME280;12312;53.362;-1.518;2023-05-25T03:37:34;100470.53;;;14.76;100.00
24154;BME280;12312;53.362;-1.518;2023-05-25T03:40:18;100462.38;;;14.90;100.00
24154;BME280;12312;53.362;-1.518;2023-05-25T03:43:02;100472.47;;;14.99;100.00
24154;BME280;12312;53.362;-1.518;2023-05-25T03:45:46;100469.44;;;14.78;100.00
24154;BME280;12312;53.362;-1.518;2023-05-25T03:48:30;100474.41;;;14.72;100.00
24154;BME280;12312;53.362;-1.518;2023-05-25T03:51:14;100473.72;;;14.56;100.00
24154;BME280;12312;53.362;-1.518;2023-05-25T03:53:59;100471.78;;;14.45;100.00
24154;BME280;12312;53.362;-1.518;2023-05-25T03:56:43;100485.03;;;14.34;100.00
24154;BME280;12312;53.362;-1.518;2023-05-25T03:59:27;100481.81;;;14.29;100.00
24154;BME280;12312;53.362;-1.518;2023-05-25T04:02:10;100488.44;;;14.23;100.00
24154;BME280;12312;53.362;-1.518;2023-05-25T04:04:54;100478.72;;;14.08;100.00
24154;BME280;12312;53.362;-1.518;2023-05-25T04:07:39;100493.97;;;14.20;100.00
24154;BME280;12312;53.362;-1.518;2023-05-25T04:10:23;100491.69;;;14.14;100.00
24154;BME280;12312;53.362;-1.518;2023-05-25T04:13:07;100486.91;;;14.19;100.00
24154;BME280;12312;53.362;-1.518;2023-05-25T04:15:51;100494.38;;;14.41;100.00
24154;BME280;12312;53.362;-1.518;2023-05-25T04:18:35;100498.78;;;14.42;100.00
24154;BME280;12312;53.362;-1.518;2023-05-25T04:21:19;100498.97;;;14.39;100.00
24154;BME280;12312;53.362;-1.518;2023-05-25T04:24:03;100501.88;;;14.36;100.00
24154;BME280;12312;53.362;-1.518;2023-05-25T04:26:47;100502.56;;;14.52;100.00
24154;BME280;12312;53.362;-1.518;2023-05-25T04:29:32;100510.47;;;14.41;100.00
24154;BME280;12312;53.362;-1.518;2023-05-25T04:32:16;100508.44;;;14.57;100.00
24154;BME280;12312;53.362;-1.518;2023-05-25T04:35:02;100506.19;;;14.51;100.00
24154;BME280;12312;53.362;-1.518;2023-05-25T04:37:46;100516.06;;;14.51;100.00
24154;BME280;12312;53.362;-1.518;2023-05-25T04:40:31;100509.56;;;14.28;100.00
24154;BME280;12312;53.362;-1.518;2023-05-25T04:43:16;100516.84;;;14.26;100.00
24154;BME280;12312;53.362;-1.518;2023-05-25T04:46:03;100520.41;;;14.39;100.00
24154;BME280;12312;53.362;-1.518;2023-05-25T04:48:47;100520.63;;;14.22;100.00
24154;BME280;12312;53.362;-1.518;2023-05-25T04:51:31;100519.13;;;14.18;100.00
24154;BME280;12312;53.362;-1.518;2023-05-25T04:54:16;100525.59;;;14.01;100.00
24154;BME280;12312;53.362;-1.518;2023-05-25T04:57:01;100530.16;;;14.13;100.00
24154;BME280;12312;53.362;-1.518;2023-05-25T04:59:45;100533.94;;;13.97;100.00
24154;BME280;12312;53.362;-1.518;2023-05-25T05:02:29;100535.25;;;14.04;100.00
24154;BME280;12312;53.362;-1.518;2023-05-25T05:05:14;100526.50;;;14.14;100.00
24154;BME280;12312;53.362;-1.518;2023-05-25T05:07:58;100523.31;;;14.22;100.00
24154;BME280;12312;53.362;-1.518;2023-05-25T05:10:42;100531.19;;;14.25;100.00
24154;BME280;12312;53.362;-1.518;2023-05-25T05:13:27;100525.97;;;14.36;100.00
24154;BME280;12312;53.362;-1.518;2023-05-25T05:16:10;100520.06;;;14.31;100.00
24154;BME280;12312;53.362;-1.518;2023-05-25T05:18:55;100536.56;;;14.11;100.00
24154;BME280;12312;53.362;-1.518;2023-05-25T05:21:38;100533.91;;;14.11;100.00
24154;BME280;12312;53.362;-1.518;2023-05-25T05:24:23;100535.59;;;14.26;100.00
24154;BME280;12312;53.362;-1.518;2023-05-25T05:27:07;100544.38;;;14.28;100.00
24154;BME280;12312;53.362;-1.518;2023-05-25T05:29:51;100545.44;;;14.25;100.00
24154;BME280;12312;53.362;-1.518;2023-05-25T05:32:35;100548.00;;;14.27;100.00
24154;BME280;12312;53.362;-1.518;2023-05-25T05:35:19;100557.03;;;14.26;100.00
24154;BME280;12312;53.362;-1.518;2023-05-25T05:38:03;100554.72;;;14.20;100.00
24154;BME280;12312;53.362;-1.518;2023-05-25T05:40:47;100550.88;;;13.97;100.00
24154;BME280;12312;53.362;-1.518;2023-05-25T05:43:31;100556.16;;;13.85;100.00
24154;BME280;12312;53.362;-1.518;2023-05-25T05:46:15;100559.00;;;13.96;100.00
24154;BME280;12312;53.362;-1.518;2023-05-25T05:49:00;100554.88;;;13.90;100.00
24154;BME280;12312;53.362;-1.518;2023-05-25T05:51:44;100552.56;;;13.98;100.00
24154;BME280;12312;53.362;-1.518;2023-05-25T05:54:28;100567.88;;;13.82;100.00
24154;BME280;12312;53.362;-1.518;2023-05-25T05:57:12;100566.66;;;13.88;100.00
24154;BME280;12312;53.362;-1.518;2023-05-25T05:59:56;100563.09;;;14.01;100.00
24154;BME280;12312;53.362;-1.518;2023-05-25T06:02:40;100573.50;;;13.92;98.25
24154;BME280;12312;53.362;-1.518;2023-05-25T06:05:24;100576.56;;;14.00;97.47
24154;BME280;12312;53.362;-1.518;2023-05-25T06:08:08;100580.75;;;14.04;96.98
24154;BME280;12312;53.362;-1.518;2023-05-25T06:10:53;100571.47;;;14.09;97.19
24154;BME280;12312;53.362;-1.518;2023-05-25T06:13:39;100575.16;;;14.21;96.81
24154;BME280;12312;53.362;-1.518;2023-05-25T06:16:23;100576.13;;;14.20;95.32
24154;BME280;12312;53.362;-1.518;2023-05-25T06:19:07;100567.03;;;14.22;97.04
24154;BME280;12312;53.362;-1.518;2023-05-25T06:21:51;100566.97;;;14.24;95.06
24154;BME280;12312;53.362;-1.518;2023-05-25T06:24:35;100567.16;;;14.07;95.35
24154;BME280;12312;53.362;-1.518;2023-05-25T06:27:19;100584.72;;;14.25;93.40
24154;BME280;12312;53.362;-1.518;2023-05-25T06:30:04;100577.28;;;14.57;91.33
24154;BME280;12312;53.362;-1.518;2023-05-25T06:32:48;100581.75;;;14.56;89.41
24154;BME280;12312;53.362;-1.518;2023-05-25T06:35:32;100589.53;;;14.73;87.99
24154;BME280;12312;53.362;-1.518;2023-05-25T06:38:16;100584.28;;;14.84;90.03
24154;BME280;12312;53.362;-1.518;2023-05-25T06:41:00;100573.47;;;14.98;88.59
24154;BME280;12312;53.362;-1.518;2023-05-25T06:43:46;100574.56;;;14.96;89.07
24154;BME280;12312;53.362;-1.518;2023-05-25T06:46:30;100580.22;;;14.91;88.54
24154;BME280;12312;53.362;-1.518;2023-05-25T06:49:15;100578.09;;;14.45;89.75
24154;BME280;12312;53.362;-1.518;2023-05-25T06:51:59;100586.34;;;14.42;89.38
24154;BME280;12312;53.362;-1.518;2023-05-25T06:54:43;100589.94;;;14.67;90.21
24154;BME280;12312;53.362;-1.518;2023-05-25T07:01:19;100603.31;;;15.06;88.51
24154;BME280;12312;53.362;-1.518;2023-05-25T07:04:03;100598.69;;;15.21;86.41
24154;BME280;12312;53.362;-1.518;2023-05-25T07:06:47;100588.34;;;15.41;87.50
24154;BME280;12312;53.362;-1.518;2023-05-25T07:09:31;100603.94;;;14.97;86.56
24154;BME280;12312;53.362;-1.518;2023-05-25T07:12:15;100598.34;;;14.88;89.11
24154;BME280;12312;53.362;-1.518;2023-05-25T07:14:59;100608.66;;;15.06;89.02
24154;BME280;12312;53.362;-1.518;2023-05-25T07:17:43;100610.16;;;15.10;89.67
24154;BME280;12312;53.362;-1.518;2023-05-25T07:20:28;100610.41;;;15.32;91.83
24154;BME280;12312;53.362;-1.518;2023-05-25T07:23:13;100610.03;;;15.51;87.84
24154;BME280;12312;53.362;-1.518;2023-05-25T07:25:57;100615.59;;;15.48;88.76
24154;BME280;12312;53.362;-1.518;2023-05-25T07:28:41;100616.00;;;15.67;84.40
24154;BME280;12312;53.362;-1.518;2023-05-25T07:31:25;100614.31;;;15.66;85.69
24154;BME280;12312;53.362;-1.518;2023-05-25T07:34:09;100616.63;;;15.83;85.76
24154;BME280;12312;53.362;-1.518;2023-05-25T07:36:53;100616.72;;;15.81;84.69
24154;BME280;12312;53.362;-1.518;2023-05-25T07:39:37;100623.53;;;15.74;84.97
24154;BME280;12312;53.362;-1.518;2023-05-25T07:42:23;100619.41;;;15.81;87.30
24154;BME280;12312;53.362;-1.518;2023-05-25T07:45:07;100626.97;;;15.76;87.14
24154;BME280;12312;53.362;-1.518;2023-05-25T07:47:51;100624.94;;;15.67;88.19
24154;BME280;12312;53.362;-1.518;2023-05-25T07:50:35;100629.31;;;15.93;88.16
24154;BME280;12312;53.362;-1.518;2023-05-25T07:53:19;100623.06;;;15.80;86.67
24154;BME280;12312;53.362;-1.518;2023-05-25T07:56:04;100625.19;;;16.00;87.91
24154;BME280;12312;53.362;-1.518;2023-05-25T07:58:48;100619.28;;;16.08;86.35
24154;BME280;12312;53.362;-1.518;2023-05-25T08:01:32;100623.38;;;16.01;86.89
24154;BME280;12312;53.362;-1.518;2023-05-25T08:04:16;100628.13;;;16.21;88.26
24154;BME280;12312;53.362;-1.518;2023-05-25T08:07:00;100622.59;;;16.12;86.19
24154;BME280;12312;53.362;-1.518;2023-05-25T08:09:45;100627.44;;;16.07;86.29
24154;BME280;12312;53.362;-1.518;2023-05-25T08:12:31;100623.19;;;15.91;88.86
24154;BME280;12312;53.362;-1.518;2023-05-25T08:15:15;100634.63;;;16.06;87.12
24154;BME280;12312;53.362;-1.518;2023-05-25T08:17:59;100634.91;;;16.27;86.00
24154;BME280;12312;53.362;-1.518;2023-05-25T08:20:43;100638.63;;;16.00;85.80
24154;BME280;12312;53.362;-1.518;2023-05-25T08:23:28;100649.81;;;15.94;85.66
24154;BME280;12312;53.362;-1.518;2023-05-25T08:26:12;100646.91;;;15.85;86.62
24154;BME280;12312;53.362;-1.518;2023-05-25T08:28:56;100650.28;;;16.25;86.94
24154;BME280;12312;53.362;-1.518;2023-05-25T08:31:39;100651.72;;;16.54;83.88
24154;BME280;12312;53.362;-1.518;2023-05-25T08:34:30;100645.69;;;16.38;83.15
24154;BME280;12312;53.362;-1.518;2023-05-25T08:37:13;100650.84;;;16.41;86.08
24154;BME280;12312;53.362;-1.518;2023-05-25T08:39:59;100655.16;;;16.43;85.63
24154;BME280;12312;53.362;-1.518;2023-05-25T08:42:45;100654.56;;;16.27;86.69
24154;BME280;12312;53.362;-1.518;2023-05-25T08:45:29;100646.75;;;16.60;83.18
24154;BME280;12312;53.362;-1.518;2023-05-25T08:48:14;100648.91;;;16.79;83.19
24154;BME280;12312;53.362;-1.518;2023-05-25T08:51:08;100655.66;;;17.19;85.17
24154;BME280;12312;53.362;-1.518;2023-05-25T08:53:53;100651.75;;;17.23;83.63
24154;BME280;12312;53.362;-1.518;2023-05-25T08:56:52;100647.31;;;17.11;82.87
24154;BME280;12312;53.362;-1.518;2023-05-25T09:00:03;100652.31;;;17.39;81.86
24154;BME280;12312;53.362;-1.518;2023-05-25T09:03:06;100650.94;;;17.22;81.15
24154;BME280;12312;53.362;-1.518;2023-05-25T09:05:55;100641.16;;;17.32;79.61
24154;BME280;12312;53.362;-1.518;2023-05-25T09:08:39;100648.44;;;17.54;79.06
24154;BME280;12312;53.362;-1.518;2023-05-25T09:11:24;100648.56;;;17.52;79.25
24154;BME280;12312;53.362;-1.518;2023-05-25T09:14:10;100651.28;;;17.29;77.41
24154;BME280;12312;53.362;-1.518;2023-05-25T09:16:54;100660.44;;;17.50;75.49
24154;BME280;12312;53.362;-1.518;2023-05-25T09:19:38;100661.09;;;17.41;76.04
24154;BME280;12312;53.362;-1.518;2023-05-25T09:22:22;100656.28;;;17.57;74.96
24154;BME280;12312;53.362;-1.518;2023-05-25T09:25:07;100664.84;;;17.51;74.25
24154;BME280;12312;53.362;-1.518;2023-05-25T09:27:53;100658.47;;;17.52;72.77
24154;BME280;12312;53.362;-1.518;2023-05-25T09:30:39;100668.66;;;17.93;70.48
24154;BME280;12312;53.362;-1.518;2023-05-25T09:33:23;100667.81;;;17.70;68.07
24154;BME280;12312;53.362;-1.518;2023-05-25T09:36:08;100672.44;;;17.57;68.34
24154;BME280;12312;53.362;-1.518;2023-05-25T09:38:53;100674.44;;;17.88;68.83
24154;BME280;12312;53.362;-1.518;2023-05-25T09:41:39;100681.53;;;17.78;69.03
24154;BME280;12312;53.362;-1.518;2023-05-25T09:44:24;100686.47;;;18.06;70.17
24154;BME280;12312;53.362;-1.518;2023-05-25T09:47:09;100667.69;;;18.27;69.74
24154;BME280;12312;53.362;-1.518;2023-05-25T09:49:57;100675.06;;;18.47;68.02
24154;BME280;12312;53.362;-1.518;2023-05-25T09:52:41;100693.75;;;18.70;67.50
24154;BME280;12312;53.362;-1.518;2023-05-25T09:55:29;100680.06;;;18.51;66.68
24154;BME280;12312;53.362;-1.518;2023-05-25T09:58:14;100684.31;;;18.65;67.72
24154;BME280;12312;53.362;-1.518;2023-05-25T10:00:58;100682.03;;;18.16;71.08
24154;BME280;12312;53.362;-1.518;2023-05-25T10:03:47;100677.81;;;18.67;67.99
24154;BME280;12312;53.362;-1.518;2023-05-25T10:06:34;100680.06;;;18.29;65.23
24154;BME280;12312;53.362;-1.518;2023-05-25T10:09:20;100682.38;;;18.56;67.17
24154;BME280;12312;53.362;-1.518;2023-05-25T10:12:06;100682.50;;;18.65;65.73
24154;BME280;12312;53.362;-1.518;2023-05-25T10:14:50;100691.34;;;18.56;64.95
24154;BME280;12312;53.362;-1.518;2023-05-25T10:17:35;100684.50;;;18.84;64.65
24154;BME280;12312;53.362;-1.518;2023-05-25T10:20:20;100683.97;;;18.58;66.96
24154;BME280;12312;53.362;-1.518;2023-05-25T10:23:09;100682.78;;;18.51;68.23
24154;BME280;12312;53.362;-1.518;2023-05-25T10:25:58;100675.84;;;18.69;66.42
24154;BME280;12312;53.362;-1.518;2023-05-25T10:28:44;100682.28;;;18.89;64.99
24154;BME280;12312;53.362;-1.518;2023-05-25T10:31:30;100690.28;;;18.79;69.29
24154;BME280;12312;53.362;-1.518;2023-05-25T10:34:16;100679.34;;;18.49;66.76
24154;BME280;12312;53.362;-1.518;2023-05-25T10:37:02;100671.84;;;18.95;66.84
24154;BME280;12312;53.362;-1.518;2023-05-25T10:39:47;100677.91;;;19.08;65.80
24154;BME280;12312;53.362;-1.518;2023-05-25T10:42:33;100681.25;;;18.69;67.75
24154;BME280;12312;53.362;-1.518;2023-05-25T10:45:20;100677.59;;;19.02;65.33
24154;BME280;12312;53.362;-1.518;2023-05-25T10:48:05;100683.56;;;19.37;64.91
24154;BME280;12312;53.362;-1.518;2023-05-25T10:50:49;100690.00;;;19.57;64.96
24154;BME280;12312;53.362;-1.518;2023-05-25T10:53:34;100682.34;;;19.62;66.82
24154;BME280;12312;53.362;-1.518;2023-05-25T10:56:18;100685.44;;;19.57;61.21
24154;BME280;12312;53.362;-1.518;2023-05-25T10:59:02;100687.16;;;19.37;62.49
24154;BME280;12312;53.362;-1.518;2023-05-25T11:01:49;100694.31;;;19.27;64.68
24154;BME280;12312;53.362;-1.518;2023-05-25T11:04:34;100691.28;;;19.41;68.54
24154;BME280;12312;53.362;-1.518;2023-05-25T11:07:20;100685.22;;;19.28;64.34
24154;BME280;12312;53.362;-1.518;2023-05-25T11:10:05;100687.34;;;18.82;66.15
24154;BME280;12312;53.362;-1.518;2023-05-25T11:12:49;100691.09;;;18.26;69.07
24154;BME280;12312;53.362;-1.518;2023-05-25T11:15:34;100688.78;;;18.55;67.61
24154;BME280;12312;53.362;-1.518;2023-05-25T11:18:18;100690.78;;;18.73;66.07
24154;BME280;12312;53.362;-1.518;2023-05-25T11:22:01;100687.19;;;18.41;64.29
24154;BME280;12312;53.362;-1.518;2023-05-25T11:24:20;100696.25;;;18.40;65.24
24154;BME280;12312;53.362;-1.518;2023-05-25T11:27:04;100683.88;;;18.27;65.57
24154;BME280;12312;53.362;-1.518;2023-05-25T11:29:52;100679.94;;;18.31;64.80
24154;BME280;12312;53.362;-1.518;2023-05-25T11:32:47;100682.19;;;18.79;64.25
24154;BME280;12312;53.362;-1.518;2023-05-25T11:35:31;100687.28;;;20.07;60.61
24154;BME280;12312;53.362;-1.518;2023-05-25T11:38:16;100680.31;;;20.84;58.73
24154;BME280;12312;53.362;-1.518;2023-05-25T11:41:02;100682.44;;;21.66;56.23
24154;BME280;12312;53.362;-1.518;2023-05-25T11:43:47;100676.38;;;22.37;55.68
24154;BME280;12312;53.362;-1.518;2023-05-25T11:46:32;100676.78;;;22.06;55.14
24154;BME280;12312;53.362;-1.518;2023-05-25T11:49:20;100672.97;;;22.62;54.58
24154;BME280;12312;53.362;-1.518;2023-05-25T11:52:05;100677.34;;;22.09;51.69
24154;BME280;12312;53.362;-1.518;2023-05-25T11:54:49;100667.34;;;22.46;50.83
24154;BME280;12312;53.362;-1.518;2023-05-25T11:57:36;100672.88;;;21.53;51.96
24154;BME280;12312;53.362;-1.518;2023-05-25T12:00:24;100673.69;;;20.58;53.58
24154;BME280;12312;53.362;-1.518;2023-05-25T12:03:31;100676.22;;;20.50;54.89
24154;BME280;12312;53.362;-1.518;2023-05-25T12:06:31;100673.50;;;20.10;55.52
24154;BME280;12312;53.362;-1.518;2023-05-25T12:09:20;100675.59;;;19.35;58.16
24154;BME280;12312;53.362;-1.518;2023-05-25T12:12:05;100676.38;;;19.58;56.51
24154;BME280;12312;53.362;-1.518;2023-05-25T12:14:49;100667.47;;;20.86;54.95
24154;BME280;12312;53.362;-1.518;2023-05-25T12:17:34;100674.63;;;21.44;50.59
24154;BME280;12312;53.362;-1.518;2023-05-25T12:20:19;100670.31;;;20.94;52.69
24154;BME280;12312;53.362;-1.518;2023-05-25T12:23:03;100669.00;;;20.69;53.28
24154;BME280;12312;53.362;-1.518;2023-05-25T12:25:47;100669.69;;;20.43;53.95
24154;BME280;12312;53.362;-1.518;2023-05-25T12:28:32;100668.75;;;19.73;56.47
24154;BME280;12312;53.362;-1.518;2023-05-25T12:31:24;100668.59;;;19.12;59.10
24154;BME280;12312;53.362;-1.518;2023-05-25T12:34:11;100672.59;;;19.50;59.34
24154;BME280;12312;53.362;-1.518;2023-05-25T12:36:56;100674.28;;;19.51;57.67
24154;BME280;12312;53.362;-1.518;2023-05-25T12:39:40;100666.38;;;19.59;57.81
24154;BME280;12312;53.362;-1.518;2023-05-25T12:42:25;100663.88;;;19.67;57.79
24154;BME280;12312;53.362;-1.518;2023-05-25T12:45:15;100660.00;;;21.93;54.50
24154;BME280;12312;53.362;-1.518;2023-05-25T12:47:58;100655.84;;;23.24;47.77
24154;BME280;12312;53.362;-1.518;2023-05-25T12:50:55;100652.19;;;24.10;46.61
24154;BME280;12312;53.362;-1.518;2023-05-25T12:53:48;100650.44;;;24.68;45.12
24154;BME280;12312;53.362;-1.518;2023-05-25T12:56:33;100648.53;;;22.62;46.54
24154;BME280;12312;53.362;-1.518;2023-05-25T12:59:17;100646.53;;;23.95;46.71
24154;BME280;12312;53.362;-1.518;2023-05-25T13:02:01;100652.09;;;21.53;49.71
24154;BME280;12312;53.362;-1.518;2023-05-25T13:04:46;100654.44;;;21.10;52.50
24154;BME280;12312;53.362;-1.518;2023-05-25T13:07:29;100647.88;;;22.60;51.39
24154;BME280;12312;53.362;-1.518;2023-05-25T13:10:15;100645.88;;;23.76;44.10
24154;BME280;12312;53.362;-1.518;2023-05-25T13:13:02;100633.75;;;21.93;48.48
24154;BME280;12312;53.362;-1.518;2023-05-25T13:15:47;100644.28;;;21.12;51.25
24154;BME280;12312;53.362;-1.518;2023-05-25T13:18:31;100637.28;;;21.38;51.84
24154;BME280;12312;53.362;-1.518;2023-05-25T13:21:15;100629.47;;;20.97;52.17
24154;BME280;12312;53.362;-1.518;2023-05-25T13:23:59;100636.72;;;20.19;52.38
24154;BME280;12312;53.362;-1.518;2023-05-25T13:26:43;100638.34;;;20.50;51.45
24154;BME280;12312;53.362;-1.518;2023-05-25T13:29:27;100633.13;;;20.77;52.04
24154;BME280;12312;53.362;-1.518;2023-05-25T13:32:11;100630.03;;;20.23;52.18
24154;BME280;12312;53.362;-1.518;2023-05-25T13:34:55;100633.94;;;20.09;55.09
24154;BME280;12312;53.362;-1.518;2023-05-25T13:37:42;100629.69;;;20.07;52.98
24154;BME280;12312;53.362;-1.518;2023-05-25T13:40:27;100633.28;;;19.57;56.38
24154;BME280;12312;53.362;-1.518;2023-05-25T13:43:11;100646.28;;;19.10;57.92
24154;BME280;12312;53.362;-1.518;2023-05-25T13:45:55;100640.13;;;19.61;55.12
24154;BME280;12312;53.362;-1.518;2023-05-25T13:48:41;100638.16;;;19.72;56.79
24154;BME280;12312;53.362;-1.518;2023-05-25T13:51:29;100641.69;;;19.63;54.63
24154;BME280;12312;53.362;-1.518;2023-05-25T13:54:13;100643.91;;;19.79;56.18
24154;BME280;12312;53.362;-1.518;2023-05-25T13:56:57;100645.97;;;19.96;53.61
24154;BME280;12312;53.362;-1.518;2023-05-25T13:59:42;100642.69;;;19.41;56.43
24154;BME280;12312;53.362;-1.518;2023-05-25T14:02:25;100651.50;;;19.23;59.25
24154;BME280;12312;53.362;-1.518;2023-05-25T14:05:10;100647.91;;;19.22;56.23
24154;BME280;12312;53.362;-1.518;2023-05-25T14:07:54;100646.09;;;19.43;56.61
24154;BME280;12312;53.362;-1.518;2023-05-25T14:10:39;100639.13;;;19.92;55.86
24154;BME280;12312;53.362;-1.518;2023-05-25T14:13:26;100642.16;;;19.98;55.79
24154;BME280;12312;53.362;-1.518;2023-05-25T14:16:10;100639.94;;;19.83;56.71
24154;BME280;12312;53.362;-1.518;2023-05-25T14:18:54;100635.97;;;19.57;57.29
24154;BME280;12312;53.362;-1.518;2023-05-25T14:21:39;100649.50;;;19.87;56.95
24154;BME280;12312;53.362;-1.518;2023-05-25T14:24:23;100648.22;;;19.61;56.00
24154;BME280;12312;53.362;-1.518;2023-05-25T14:27:07;100645.97;;;19.24;56.32
24154;BME280;12312;53.362;-1.518;2023-05-25T14:29:52;100644.78;;;19.59;55.67
24154;BME280;12312;53.362;-1.518;2023-05-25T14:32:36;100644.44;;;20.03;55.46
24154;BME280;12312;53.362;-1.518;2023-05-25T14:35:21;100640.31;;;19.69;56.64
24154;BME280;12312;53.362;-1.518;2023-05-25T14:38:07;100640.84;;;20.23;53.19
24154;BME280;12312;53.362;-1.518;2023-05-25T14:40:51;100638.63;;;19.77;54.98
24154;BME280;12312;53.362;-1.518;2023-05-25T14:43:35;100636.97;;;19.86;54.69
24154;BME280;12312;53.362;-1.518;2023-05-25T14:46:19;100638.16;;;19.63;54.84
24154;BME280;12312;53.362;-1.518;2023-05-25T14:49:03;100639.72;;;19.44;56.19
24154;BME280;12312;53.362;-1.518;2023-05-25T14:51:47;100644.47;;;19.52;56.16
24154;BME280;12312;53.362;-1.518;2023-05-25T14:54:31;100642.81;;;19.61;55.88
24154;BME280;12312;53.362;-1.518;2023-05-25T14:57:14;100637.41;;;19.61;58.41
24154;BME280;12312;53.362;-1.518;2023-05-25T14:59:58;100640.97;;;19.40;56.38
24154;BME280;12312;53.362;-1.518;2023-05-25T15:02:42;100643.47;;;19.32;56.12
24154;BME280;12312;53.362;-1.518;2023-05-25T15:05:26;100641.53;;;19.03;56.74
24154;BME280;12312;53.362;-1.518;2023-05-25T15:08:10;100628.84;;;19.56;56.05
24154;BME280;12312;53.362;-1.518;2023-05-25T15:10:54;100635.56;;;19.40;56.38
24154;BME280;12312;53.362;-1.518;2023-05-25T15:13:39;100636.75;;;19.48;56.54
24154;BME280;12312;53.362;-1.518;2023-05-25T15:16:23;100627.72;;;19.17;57.10
24154;BME280;12312;53.362;-1.518;2023-05-25T15:19:07;100635.41;;;19.21;56.71